sensor_id;sensor_type;location;lat;lon;timestamp;P1;durP1;ratioP1;P2;durP2;ratioP2
40256;SDS011;25977;45.462;9.210;2023-07-20T00:01:52;17.70;;;5.40;;
40256;SDS011;25977;45.462;9.210;2023-07-20T00:04:18;10.40;;;4.38;;
40256;SDS011;25977;45.462;9.210;2023-07-20T00:06:43;7.85;;;4.07;;
40256;SDS011;25977;45.462;9.210;2023-07-20T00:09:10;6.05;;;3.03;;
40256;SDS011;25977;45.462;9.210;2023-07-20T00:11:36;8.90;;;3.67;;
40256;SDS011;25977;45.462;9.210;2023-07-20T00:14:03;5.53;;;3.38;;
40256;SDS011;25977;45.462;9.210;2023-07-20T00:16:29;6.07;;;3.25;;
40256;SDS011;25977;45.462;9.210;2023-07-20T00:18:55;17.33;;;3.70;;
40256;SDS011;25977;45.462;9.210;2023-07-20T00:21:21;6.55;;;3.22;;
40256;SDS011;25977;45.462;9.210;2023-07-20T00:23:46;7.72;;;3.15;;
40256;SDS011;25977;45.462;9.210;2023-07-20T00:26:12;11.88;;;3.90;;
40256;SDS011;25977;45.462;9.210;2023-07-20T00:28:38;11.45;;;3.88;;
40256;SDS011;25977;45.462;9.210;2023-07-20T00:31:04;7.22;;;3.25;;
40256;SDS011;25977;45.462;9.210;2023-07-20T00:33:29;7.80;;;4.18;;
40256;SDS011;25977;45.462;9.210;2023-07-20T00:35:55;8.32;;;3.88;;
40256;SDS011;25977;45.462;9.210;2023-07-20T00:38:21;9.60;;;4.40;;
40256;SDS011;25977;45.462;9.210;2023-07-20T00:40:47;6.82;;;3.72;;
40256;SDS011;25977;45.462;9.210;2023-07-20T00:43:14;5.28;;;3.88;;
40256;SDS011;25977;45.462;9.210;2023-07-20T00:45:40;6.78;;;3.65;;
40256;SDS011;25977;45.462;9.210;2023-07-20T00:48:07;5.63;;;3.95;;
40256;SDS011;25977;45.462;9.210;2023-07-20T00:50:35;11.52;;;3.75;;
40256;SDS011;25977;45.462;9.210;2023-07-20T00:53:01;7.32;;;3.20;;
40256;SDS011;25977;45.462;9.210;2023-07-20T00:55:31;6.40;;;3.55;;
40256;SDS011;25977;45.462;9.210;2023-07-20T00:57:57;5.72;;;3.97;;
40256;SDS011;25977;45.462;9.210;2023-07-20T01:00:24;4.90;;;3.70;;
40256;SDS011;25977;45.462;9.210;2023-07-20T01:02:50;6.10;;;3.33;;
40256;SDS011;25977;45.462;9.210;2023-07-20T01:05:17;5.05;;;3.28;;
40256;SDS011;25977;45.462;9.210;2023-07-20T01:07:46;7.07;;;3.50;;
40256;SDS011;25977;45.462;9.210;2023-07-20T01:10:31;5.78;;;3.63;;
40256;SDS011;25977;45.462;9.210;2023-07-20T01:13:04;6.45;;;4.32;;
40256;SDS011;25977;45.462;9.210;2023-07-20T01:15:33;6.00;;;3.63;;
40256;SDS011;25977;45.462;9.210;2023-07-20T01:17:59;8.02;;;3.42;;
40256;SDS011;25977;45.462;9.210;2023-07-20T01:20:26;4.95;;;3.45;;
40256;SDS011;25977;45.462;9.210;2023-07-20T01:28:57;3.85;;;3.38;;
40256;SDS011;25977;45.462;9.210;2023-07-20T01:31:27;4.55;;;4.15;;
40256;SDS011;25977;45.462;9.210;2023-07-20T01:33:56;5.82;;;4.97;;
40256;SDS011;25977;45.462;9.210;2023-07-20T01:36:24;6.80;;;3.50;;
40256;SDS011;25977;45.462;9.210;2023-07-20T01:38:52;5.65;;;3.55;;
40256;SDS011;25977;45.462;9.210;2023-07-20T01:41:18;5.25;;;3.60;;
40256;SDS011;25977;45.462;9.210;2023-07-20T01:43:44;5.22;;;3.50;;
40256;SDS011;25977;45.462;9.210;2023-07-20T01:46:11;6.78;;;4.05;;
40256;SDS011;25977;45.462;9.210;2023-07-20T01:48:36;4.38;;;3.30;;
40256;SDS011;25977;45.462;9.210;2023-07-20T01:51:02;7.95;;;3.92;;
40256;SDS011;25977;45.462;9.210;2023-07-20T01:53:28;6.63;;;4.13;;
40256;SDS011;25977;45.462;9.210;2023-07-20T01:55:53;10.57;;;3.95;;
40256;SDS011;25977;45.462;9.210;2023-07-20T01:58:19;10.68;;;4.68;;
40256;SDS011;25977;45.462;9.210;2023-07-20T02:00:46;8.70;;;5.93;;
40256;SDS011;25977;45.462;9.210;2023-07-20T02:03:11;7.63;;;4.47;;
40256;SDS011;25977;45.462;9.210;2023-07-20T02:05:37;8.65;;;4.72;;
40256;SDS011;25977;45.462;9.210;2023-07-20T02:08:03;7.95;;;5.05;;
40256;SDS011;25977;45.462;9.210;2023-07-20T02:10:29;4.57;;;3.83;;
40256;SDS011;25977;45.462;9.210;2023-07-20T02:12:54;9.55;;;6.05;;
40256;SDS011;25977;45.462;9.210;2023-07-20T02:15:20;8.13;;;4.60;;
40256;SDS011;25977;45.462;9.210;2023-07-20T02:17:47;10.45;;;4.72;;
40256;SDS011;25977;45.462;9.210;2023-07-20T02:20:13;8.02;;;4.82;;
40256;SDS011;25977;45.462;9.210;2023-07-20T02:22:42;7.97;;;4.85;;
40256;SDS011;25977;45.462;9.210;2023-07-20T02:25:08;6.68;;;4.80;;
40256;SDS011;25977;45.462;9.210;2023-07-20T02:27:34;7.95;;;4.93;;
40256;SDS011;25977;45.462;9.210;2023-07-20T02:30:00;5.40;;;4.55;;
40256;SDS011;25977;45.462;9.210;2023-07-20T02:32:27;12.10;;;6.28;;
40256;SDS011;25977;45.462;9.210;2023-07-20T02:34:53;6.43;;;5.10;;
40256;SDS011;25977;45.462;9.210;2023-07-20T02:37:19;11.35;;;6.25;;
40256;SDS011;25977;45.462;9.210;2023-07-20T02:39:44;12.38;;;5.82;;
40256;SDS011;25977;45.462;9.210;2023-07-20T02:42:10;11.80;;;7.00;;
40256;SDS011;25977;45.462;9.210;2023-07-20T02:44:36;11.05;;;6.07;;
40256;SDS011;25977;45.462;9.210;2023-07-20T02:47:02;13.95;;;7.20;;
40256;SDS011;25977;45.462;9.210;2023-07-20T02:49:27;12.38;;;6.72;;
40256;SDS011;25977;45.462;9.210;2023-07-20T02:51:53;8.85;;;5.55;;
40256;SDS011;25977;45.462;9.210;2023-07-20T02:54:21;6.97;;;5.65;;
40256;SDS011;25977;45.462;9.210;2023-07-20T02:56:46;8.13;;;5.65;;
40256;SDS011;25977;45.462;9.210;2023-07-20T02:59:12;10.18;;;6.07;;
40256;SDS011;25977;45.462;9.210;2023-07-20T03:01:38;8.73;;;5.05;;
40256;SDS011;25977;45.462;9.210;2023-07-20T03:04:03;8.15;;;5.22;;
40256;SDS011;25977;45.462;9.210;2023-07-20T03:06:29;9.88;;;6.20;;
40256;SDS011;25977;45.462;9.210;2023-07-20T03:08:55;8.60;;;5.63;;
40256;SDS011;25977;45.462;9.210;2023-07-20T03:11:21;6.47;;;4.70;;
40256;SDS011;25977;45.462;9.210;2023-07-20T03:13:47;7.38;;;5.93;;
40256;SDS011;25977;45.462;9.210;2023-07-20T03:16:19;5.43;;;4.95;;
40256;SDS011;25977;45.462;9.210;2023-07-20T03:18:45;10.77;;;5.77;;
40256;SDS011;25977;45.462;9.210;2023-07-20T03:21:11;13.95;;;5.72;;
40256;SDS011;25977;45.462;9.210;2023-07-20T03:23:40;8.07;;;6.07;;
40256;SDS011;25977;45.462;9.210;2023-07-20T03:26:07;7.20;;;5.15;;
40256;SDS011;25977;45.462;9.210;2023-07-20T03:28:36;6.03;;;5.43;;
40256;SDS011;25977;45.462;9.210;2023-07-20T03:31:03;9.57;;;5.63;;
40256;SDS011;25977;45.462;9.210;2023-07-20T03:33:32;8.07;;;5.43;;
40256;SDS011;25977;45.462;9.210;2023-07-20T03:35:58;8.48;;;5.50;;
40256;SDS011;25977;45.462;9.210;2023-07-20T03:38:25;8.93;;;5.97;;
40256;SDS011;25977;45.462;9.210;2023-07-20T03:40:53;6.65;;;5.07;;
40256;SDS011;25977;45.462;9.210;2023-07-20T03:43:20;9.35;;;5.75;;
40256;SDS011;25977;45.462;9.210;2023-07-20T03:45:46;7.00;;;6.25;;
40256;SDS011;25977;45.462;9.210;2023-07-20T03:48:16;6.20;;;5.25;;
40256;SDS011;25977;45.462;9.210;2023-07-20T03:50:49;5.43;;;4.93;;
40256;SDS011;25977;45.462;9.210;2023-07-20T03:53:17;6.90;;;5.45;;
40256;SDS011;25977;45.462;9.210;2023-07-20T03:55:47;13.60;;;6.50;;
40256;SDS011;25977;45.462;9.210;2023-07-20T03:58:13;9.05;;;5.93;;
40256;SDS011;25977;45.462;9.210;2023-07-20T04:00:40;8.68;;;6.03;;
40256;SDS011;25977;45.462;9.210;2023-07-20T04:03:09;10.05;;;6.15;;
40256;SDS011;25977;45.462;9.210;2023-07-20T04:05:35;8.80;;;4.93;;
40256;SDS011;25977;45.462;9.210;2023-07-20T04:08:01;10.30;;;6.15;;
40256;SDS011;25977;45.462;9.210;2023-07-20T04:10:26;8.00;;;5.05;;
40256;SDS011;25977;45.462;9.210;2023-07-20T04:12:52;11.88;;;6.20;;
40256;SDS011;25977;45.462;9.210;2023-07-20T04:15:18;8.07;;;5.57;;
40256;SDS011;25977;45.462;9.210;2023-07-20T04:17:44;9.43;;;5.50;;
40256;SDS011;25977;45.462;9.210;2023-07-20T04:20:11;7.32;;;4.93;;
40256;SDS011;25977;45.462;9.210;2023-07-20T04:22:36;10.18;;;5.55;;
40256;SDS011;25977;45.462;9.210;2023-07-20T04:25:04;10.55;;;5.38;;
40256;SDS011;25977;45.462;9.210;2023-07-20T04:27:30;6.90;;;5.40;;
40256;SDS011;25977;45.462;9.210;2023-07-20T04:29:57;15.05;;;6.25;;
40256;SDS011;25977;45.462;9.210;2023-07-20T04:32:25;9.07;;;5.15;;
40256;SDS011;25977;45.462;9.210;2023-07-20T04:34:51;9.90;;;5.38;;
40256;SDS011;25977;45.462;9.210;2023-07-20T04:37:18;6.90;;;5.82;;
40256;SDS011;25977;45.462;9.210;2023-07-20T04:39:45;11.18;;;5.88;;
40256;SDS011;25977;45.462;9.210;2023-07-20T04:42:11;9.07;;;5.82;;
40256;SDS011;25977;45.462;9.210;2023-07-20T04:44:36;10.23;;;5.45;;
40256;SDS011;25977;45.462;9.210;2023-07-20T04:47:02;6.03;;;4.50;;
40256;SDS011;25977;45.462;9.210;2023-07-20T04:49:32;9.15;;;5.22;;
40256;SDS011;25977;45.462;9.210;2023-07-20T04:51:58;6.70;;;5.70;;
40256;SDS011;25977;45.462;9.210;2023-07-20T04:54:24;6.82;;;5.85;;
40256;SDS011;25977;45.462;9.210;2023-07-20T04:56:52;7.05;;;5.35;;
40256;SDS011;25977;45.462;9.210;2023-07-20T04:59:19;6.95;;;4.53;;
40256;SDS011;25977;45.462;9.210;2023-07-20T05:01:45;5.82;;;5.07;;
40256;SDS011;25977;45.462;9.210;2023-07-20T05:04:11;8.07;;;5.72;;
40256;SDS011;25977;45.462;9.210;2023-07-20T05:06:37;7.43;;;4.78;;
40256;SDS011;25977;45.462;9.210;2023-07-20T05:09:04;7.63;;;4.78;;
40256;SDS011;25977;45.462;9.210;2023-07-20T05:11:31;8.50;;;5.35;;
40256;SDS011;25977;45.462;9.210;2023-07-20T05:13:57;5.78;;;4.72;;
40256;SDS011;25977;45.462;9.210;2023-07-20T05:16:23;9.55;;;4.47;;
40256;SDS011;25977;45.462;9.210;2023-07-20T05:18:50;12.38;;;5.00;;
40256;SDS011;25977;45.462;9.210;2023-07-20T05:21:18;6.80;;;4.95;;
40256;SDS011;25977;45.462;9.210;2023-07-20T05:23:43;7.82;;;4.63;;
40256;SDS011;25977;45.462;9.210;2023-07-20T05:26:12;5.90;;;4.22;;
40256;SDS011;25977;45.462;9.210;2023-07-20T05:28:37;6.95;;;4.97;;
40256;SDS011;25977;45.462;9.210;2023-07-20T05:31:03;6.82;;;5.50;;
40256;SDS011;25977;45.462;9.210;2023-07-20T05:33:29;30.25;;;6.05;;
40256;SDS011;25977;45.462;9.210;2023-07-20T05:35:54;8.55;;;5.10;;
40256;SDS011;25977;45.462;9.210;2023-07-20T05:38:20;7.03;;;5.30;;
40256;SDS011;25977;45.462;9.210;2023-07-20T05:40:45;6.57;;;4.15;;
40256;SDS011;25977;45.462;9.210;2023-07-20T05:43:12;5.32;;;4.60;;
40256;SDS011;25977;45.462;9.210;2023-07-20T05:45:41;10.70;;;4.88;;
40256;SDS011;25977;45.462;9.210;2023-07-20T05:48:07;6.10;;;5.25;;
40256;SDS011;25977;45.462;9.210;2023-07-20T05:50:36;4.55;;;3.72;;
40256;SDS011;25977;45.462;9.210;2023-07-20T05:53:02;6.30;;;4.18;;
40256;SDS011;25977;45.462;9.210;2023-07-20T05:55:28;5.95;;;3.50;;
40256;SDS011;25977;45.462;9.210;2023-07-20T05:57:53;7.82;;;4.53;;
40256;SDS011;25977;45.462;9.210;2023-07-20T06:00:21;3.65;;;3.33;;
40256;SDS011;25977;45.462;9.210;2023-07-20T06:02:51;7.07;;;4.25;;
40256;SDS011;25977;45.462;9.210;2023-07-20T06:05:21;7.60;;;4.63;;
40256;SDS011;25977;45.462;9.210;2023-07-20T06:07:48;7.88;;;5.10;;
40256;SDS011;25977;45.462;9.210;2023-07-20T06:10:14;6.80;;;5.25;;
40256;SDS011;25977;45.462;9.210;2023-07-20T06:12:40;7.18;;;3.78;;
40256;SDS011;25977;45.462;9.210;2023-07-20T06:15:12;8.27;;;4.07;;
40256;SDS011;25977;45.462;9.210;2023-07-20T06:17:53;10.48;;;4.13;;
40256;SDS011;25977;45.462;9.210;2023-07-20T06:20:19;9.02;;;4.82;;
40256;SDS011;25977;45.462;9.210;2023-07-20T06:22:45;4.82;;;4.20;;
40256;SDS011;25977;45.462;9.210;2023-07-20T06:25:10;6.45;;;4.10;;
40256;SDS011;25977;45.462;9.210;2023-07-20T06:27:36;9.73;;;3.88;;
40256;SDS011;25977;45.462;9.210;2023-07-20T06:30:02;7.35;;;4.07;;
40256;SDS011;25977;45.462;9.210;2023-07-20T06:32:28;7.88;;;5.22;;
40256;SDS011;25977;45.462;9.210;2023-07-20T06:34:53;5.60;;;4.03;;
40256;SDS011;25977;45.462;9.210;2023-07-20T06:37:19;4.80;;;3.88;;
40256;SDS011;25977;45.462;9.210;2023-07-20T06:39:45;6.60;;;3.30;;
40256;SDS011;25977;45.462;9.210;2023-07-20T06:42:11;6.50;;;3.50;;
40256;SDS011;25977;45.462;9.210;2023-07-20T06:44:37;7.05;;;3.95;;
40256;SDS011;25977;45.462;9.210;2023-07-20T06:47:02;7.72;;;4.53;;
40256;SDS011;25977;45.462;9.210;2023-07-20T06:49:28;8.82;;;4.13;;
40256;SDS011;25977;45.462;9.210;2023-07-20T06:51:54;6.53;;;4.82;;
40256;SDS011;25977;45.462;9.210;2023-07-20T06:54:20;11.90;;;4.63;;
40256;SDS011;25977;45.462;9.210;2023-07-20T06:56:46;5.68;;;4.63;;
40256;SDS011;25977;45.462;9.210;2023-07-20T06:59:12;7.20;;;3.90;;
40256;SDS011;25977;45.462;9.210;2023-07-20T07:01:38;7.25;;;4.25;;
40256;SDS011;25977;45.462;9.210;2023-07-20T07:04:04;6.13;;;4.32;;
40256;SDS011;25977;45.462;9.210;2023-07-20T07:06:30;11.20;;;4.30;;
40256;SDS011;25977;45.462;9.210;2023-07-20T07:08:56;4.68;;;4.18;;
40256;SDS011;25977;45.462;9.210;2023-07-20T07:11:22;8.07;;;5.65;;
40256;SDS011;25977;45.462;9.210;2023-07-20T07:13:48;9.15;;;5.13;;
40256;SDS011;25977;45.462;9.210;2023-07-20T07:16:16;5.68;;;4.32;;
40256;SDS011;25977;45.462;9.210;2023-07-20T07:18:44;7.63;;;4.55;;
40256;SDS011;25977;45.462;9.210;2023-07-20T07:21:10;5.53;;;4.57;;
40256;SDS011;25977;45.462;9.210;2023-07-20T07:23:37;12.13;;;4.22;;
40256;SDS011;25977;45.462;9.210;2023-07-20T07:26:03;16.10;;;4.65;;
40256;SDS011;25977;45.462;9.210;2023-07-20T07:28:29;8.35;;;4.20;;
40256;SDS011;25977;45.462;9.210;2023-07-20T07:30:55;11.93;;;3.97;;
40256;SDS011;25977;45.462;9.210;2023-07-20T07:33:22;6.60;;;4.53;;
40256;SDS011;25977;45.462;9.210;2023-07-20T07:35:48;4.88;;;3.42;;
40256;SDS011;25977;45.462;9.210;2023-07-20T07:38:15;6.88;;;3.88;;
40256;SDS011;25977;45.462;9.210;2023-07-20T07:40:40;4.75;;;3.65;;
40256;SDS011;25977;45.462;9.210;2023-07-20T07:43:07;7.10;;;4.07;;
40256;SDS011;25977;45.462;9.210;2023-07-20T07:45:34;4.97;;;3.63;;
40256;SDS011;25977;45.462;9.210;2023-07-20T07:48:02;5.82;;;4.15;;
40256;SDS011;25977;45.462;9.210;2023-07-20T07:50:28;6.07;;;3.33;;
40256;SDS011;25977;45.462;9.210;2023-07-20T07:52:54;8.00;;;4.10;;
40256;SDS011;25977;45.462;9.210;2023-07-20T07:55:19;8.27;;;4.15;;
40256;SDS011;25977;45.462;9.210;2023-07-20T07:57:45;7.40;;;4.15;;
40256;SDS011;25977;45.462;9.210;2023-07-20T08:00:12;8.07;;;4.20;;
40256;SDS011;25977;45.462;9.210;2023-07-20T08:02:42;12.38;;;4.80;;
40256;SDS011;25977;45.462;9.210;2023-07-20T08:05:09;9.45;;;4.13;;
40256;SDS011;25977;45.462;9.210;2023-07-20T08:07:35;9.43;;;4.65;;
40256;SDS011;25977;45.462;9.210;2023-07-20T08:10:01;5.55;;;3.92;;
40256;SDS011;25977;45.462;9.210;2023-07-20T08:12:28;9.60;;;5.15;;
40256;SDS011;25977;45.462;9.210;2023-07-20T08:14:53;7.00;;;4.70;;
40256;SDS011;25977;45.462;9.210;2023-07-20T08:17:19;7.20;;;5.35;;
40256;SDS011;25977;45.462;9.210;2023-07-20T08:19:45;17.08;;;5.63;;
40256;SDS011;25977;45.462;9.210;2023-07-20T08:22:11;8.48;;;3.95;;
40256;SDS011;25977;45.462;9.210;2023-07-20T08:24:40;6.43;;;4.68;;
40256;SDS011;25977;45.462;9.210;2023-07-20T08:27:07;5.18;;;4.65;;
40256;SDS011;25977;45.462;9.210;2023-07-20T08:29:34;10.63;;;4.32;;
40256;SDS011;25977;45.462;9.210;2023-07-20T08:31:59;8.30;;;4.63;;
40256;SDS011;25977;45.462;9.210;2023-07-20T08:34:25;7.57;;;4.88;;
40256;SDS011;25977;45.462;9.210;2023-07-20T08:36:51;15.07;;;5.15;;
40256;SDS011;25977;45.462;9.210;2023-07-20T08:39:16;10.32;;;4.90;;
40256;SDS011;25977;45.462;9.210;2023-07-20T08:41:43;8.68;;;4.95;;
40256;SDS011;25977;45.462;9.210;2023-07-20T08:44:09;7.75;;;4.78;;
40256;SDS011;25977;45.462;9.210;2023-07-20T08:46:36;8.65;;;5.05;;
40256;SDS011;25977;45.462;9.210;2023-07-20T08:49:04;5.03;;;4.55;;
40256;SDS011;25977;45.462;9.210;2023-07-20T08:51:30;6.55;;;4.85;;
40256;SDS011;25977;45.462;9.210;2023-07-20T08:53:57;6.75;;;5.30;;
40256;SDS011;25977;45.462;9.210;2023-07-20T08:56:24;5.28;;;4.63;;
40256;SDS011;25977;45.462;9.210;2023-07-20T08:58:51;6.95;;;4.93;;
40256;SDS011;25977;45.462;9.210;2023-07-20T09:01:18;7.03;;;5.05;;
40256;SDS011;25977;45.462;9.210;2023-07-20T09:03:45;6.97;;;5.78;;
40256;SDS011;25977;45.462;9.210;2023-07-20T09:06:11;11.43;;;4.32;;
40256;SDS011;25977;45.462;9.210;2023-07-20T09:08:41;6.97;;;5.18;;
40256;SDS011;25977;45.462;9.210;2023-07-20T09:11:07;8.05;;;4.68;;
40256;SDS011;25977;45.462;9.210;2023-07-20T09:13:37;11.32;;;5.50;;
40256;SDS011;25977;45.462;9.210;2023-07-20T09:16:03;8.38;;;4.82;;
40256;SDS011;25977;45.462;9.210;2023-07-20T09:18:30;8.18;;;4.90;;
40256;SDS011;25977;45.462;9.210;2023-07-20T09:20:58;12.30;;;5.78;;
40256;SDS011;25977;45.462;9.210;2023-07-20T09:23:33;10.13;;;5.25;;
40256;SDS011;25977;45.462;9.210;2023-07-20T09:26:11;10.68;;;4.53;;
40256;SDS011;25977;45.462;9.210;2023-07-20T09:28:52;6.38;;;4.30;;
40256;SDS011;25977;45.462;9.210;2023-07-20T09:31:19;10.32;;;4.60;;
40256;SDS011;25977;45.462;9.210;2023-07-20T09:33:46;9.82;;;4.40;;
40256;SDS011;25977;45.462;9.210;2023-07-20T09:36:13;7.57;;;4.80;;
40256;SDS011;25977;45.462;9.210;2023-07-20T09:38:42;4.85;;;4.45;;
40256;SDS011;25977;45.462;9.210;2023-07-20T09:41:08;8.45;;;4.35;;
40256;SDS011;25977;45.462;9.210;2023-07-20T09:43:38;7.13;;;4.63;;
40256;SDS011;25977;45.462;9.210;2023-07-20T09:46:06;9.95;;;4.55;;
40256;SDS011;25977;45.462;9.210;2023-07-20T09:48:32;5.65;;;5.15;;
40256;SDS011;25977;45.462;9.210;2023-07-20T09:50:58;6.15;;;4.72;;
40256;SDS011;25977;45.462;9.210;2023-07-20T09:53:24;20.88;;;5.10;;
40256;SDS011;25977;45.462;9.210;2023-07-20T09:55:51;8.27;;;3.92;;
40256;SDS011;25977;45.462;9.210;2023-07-20T09:58:18;6.03;;;4.35;;
40256;SDS011;25977;45.462;9.210;2023-07-20T10:00:45;6.63;;;4.82;;
40256;SDS011;25977;45.462;9.210;2023-07-20T10:03:14;9.05;;;4.72;;
40256;SDS011;25977;45.462;9.210;2023-07-20T10:05:48;10.70;;;4.80;;
40256;SDS011;25977;45.462;9.210;2023-07-20T10:08:25;5.28;;;4.20;;
40256;SDS011;25977;45.462;9.210;2023-07-20T10:10:51;6.18;;;3.50;;
40256;SDS011;25977;45.462;9.210;2023-07-20T10:13:17;6.97;;;4.40;;
40256;SDS011;25977;45.462;9.210;2023-07-20T10:15:47;6.80;;;4.68;;
40256;SDS011;25977;45.462;9.210;2023-07-20T10:18:23;5.97;;;4.47;;
40256;SDS011;25977;45.462;9.210;2023-07-20T10:21:17;9.93;;;4.80;;
40256;SDS011;25977;45.462;9.210;2023-07-20T10:23:44;7.55;;;4.93;;
40256;SDS011;25977;45.462;9.210;2023-07-20T10:26:11;5.90;;;4.05;;
40256;SDS011;25977;45.462;9.210;2023-07-20T10:28:38;8.55;;;4.53;;
40256;SDS011;25977;45.462;9.210;2023-07-20T10:31:04;8.07;;;4.18;;
40256;SDS011;25977;45.462;9.210;2023-07-20T10:33:32;10.57;;;4.32;;
40256;SDS011;25977;45.462;9.210;2023-07-20T10:36:01;7.50;;;5.05;;
40256;SDS011;25977;45.462;9.210;2023-07-20T10:38:44;5.07;;;4.55;;
40256;SDS011;25977;45.462;9.210;2023-07-20T10:43:57;5.80;;;4.25;;
40256;SDS011;25977;45.462;9.210;2023-07-20T10:49:05;9.80;;;5.57;;
40256;SDS011;25977;45.462;9.210;2023-07-20T10:51:42;6.00;;;4.55;;
40256;SDS011;25977;45.462;9.210;2023-07-20T10:54:52;6.22;;;4.63;;
40256;SDS011;25977;45.462;9.210;2023-07-20T10:56:54;5.03;;;3.95;;
40256;SDS011;25977;45.462;9.210;2023-07-20T11:01:50;10.80;;;5.35;;
40256;SDS011;25977;45.462;9.210;2023-07-20T11:04:37;4.85;;;4.05;;
40256;SDS011;25977;45.462;9.210;2023-07-20T11:07:07;7.55;;;4.63;;
40256;SDS011;25977;45.462;9.210;2023-07-20T11:09:34;4.28;;;3.92;;
40256;SDS011;25977;45.462;9.210;2023-07-20T11:12:13;8.25;;;5.45;;
40256;SDS011;25977;45.462;9.210;2023-07-20T11:14:43;7.60;;;5.25;;
40256;SDS011;25977;45.462;9.210;2023-07-20T11:17:19;7.15;;;5.40;;
40256;SDS011;25977;45.462;9.210;2023-07-20T11:19:55;4.78;;;4.03;;
40256;SDS011;25977;45.462;9.210;2023-07-20T11:22:22;5.78;;;4.30;;
40256;SDS011;25977;45.462;9.210;2023-07-20T11:24:47;10.50;;;5.97;;
40256;SDS011;25977;45.462;9.210;2023-07-20T11:27:14;9.30;;;4.85;;
40256;SDS011;25977;45.462;9.210;2023-07-20T11:29:40;4.45;;;3.97;;
40256;SDS011;25977;45.462;9.210;2023-07-20T11:32:06;15.25;;;4.78;;
40256;SDS011;25977;45.462;9.210;2023-07-20T11:34:32;5.20;;;4.90;;
40256;SDS011;25977;45.462;9.210;2023-07-20T11:36:59;8.43;;;4.05;;
40256;SDS011;25977;45.462;9.210;2023-07-20T11:39:25;6.07;;;4.07;;
40256;SDS011;25977;45.462;9.210;2023-07-20T11:41:52;8.13;;;4.28;;
40256;SDS011;25977;45.462;9.210;2023-07-20T11:44:19;6.25;;;4.35;;
40256;SDS011;25977;45.462;9.210;2023-07-20T11:46:53;7.00;;;4.63;;
40256;SDS011;25977;45.462;9.210;2023-07-20T11:49:29;6.38;;;4.28;;
40256;SDS011;25977;45.462;9.210;2023-07-20T11:51:55;7.53;;;4.38;;
40256;SDS011;25977;45.462;9.210;2023-07-20T11:54:22;11.43;;;5.35;;
40256;SDS011;25977;45.462;9.210;2023-07-20T11:56:53;4.18;;;3.80;;
40256;SDS011;25977;45.462;9.210;2023-07-20T11:59:20;4.63;;;3.85;;
40256;SDS011;25977;45.462;9.210;2023-07-20T12:01:45;9.05;;;5.70;;
40256;SDS011;25977;45.462;9.210;2023-07-20T12:04:11;6.40;;;4.35;;
40256;SDS011;25977;45.462;9.210;2023-07-20T12:06:37;7.57;;;3.83;;
40256;SDS011;25977;45.462;9.210;2023-07-20T12:09:03;6.72;;;4.18;;
40256;SDS011;25977;45.462;9.210;2023-07-20T12:11:35;8.32;;;4.65;;
40256;SDS011;25977;45.462;9.210;2023-07-20T12:14:02;9.65;;;4.28;;
40256;SDS011;25977;45.462;9.210;2023-07-20T12:16:29;4.32;;;3.92;;
40256;SDS011;25977;45.462;9.210;2023-07-20T12:18:59;9.10;;;3.55;;
40256;SDS011;25977;45.462;9.210;2023-07-20T12:21:29;6.40;;;4.03;;
40256;SDS011;25977;45.462;9.210;2023-07-20T12:23:55;6.47;;;3.70;;
40256;SDS011;25977;45.462;9.210;2023-07-20T12:26:23;6.60;;;3.63;;
40256;SDS011;25977;45.462;9.210;2023-07-20T12:28:50;4.32;;;3.75;;
40256;SDS011;25977;45.462;9.210;2023-07-20T12:31:16;5.68;;;4.30;;
40256;SDS011;25977;45.462;9.210;2023-07-20T12:33:42;6.28;;;3.88;;
40256;SDS011;25977;45.462;9.210;2023-07-20T12:36:08;7.95;;;3.60;;
40256;SDS011;25977;45.462;9.210;2023-07-20T12:38:37;5.72;;;3.53;;
40256;SDS011;25977;45.462;9.210;2023-07-20T12:41:03;9.00;;;3.42;;
40256;SDS011;25977;45.462;9.210;2023-07-20T12:43:29;4.63;;;4.13;;
40256;SDS011;25977;45.462;9.210;2023-07-20T12:45:57;5.70;;;4.05;;
40256;SDS011;25977;45.462;9.210;2023-07-20T12:48:22;11.95;;;5.30;;
40256;SDS011;25977;45.462;9.210;2023-07-20T12:50:48;5.90;;;4.18;;
40256;SDS011;25977;45.462;9.210;2023-07-20T12:53:14;6.53;;;4.57;;
40256;SDS011;25977;45.462;9.210;2023-07-20T12:55:40;4.28;;;3.75;;
40256;SDS011;25977;45.462;9.210;2023-07-20T12:58:06;6.75;;;4.45;;
40256;SDS011;25977;45.462;9.210;2023-07-20T13:00:32;8.07;;;4.03;;
40256;SDS011;25977;45.462;9.210;2023-07-20T13:02:58;4.20;;;3.78;;
40256;SDS011;25977;45.462;9.210;2023-07-20T13:05:24;5.50;;;3.90;;
40256;SDS011;25977;45.462;9.210;2023-07-20T13:07:49;8.38;;;3.83;;
40256;SDS011;25977;45.462;9.210;2023-07-20T13:10:15;7.57;;;4.07;;
40256;SDS011;25977;45.462;9.210;2023-07-20T13:12:41;4.57;;;3.83;;
40256;SDS011;25977;45.462;9.210;2023-07-20T13:15:07;5.05;;;3.75;;
40256;SDS011;25977;45.462;9.210;2023-07-20T13:17:37;5.85;;;3.40;;
40256;SDS011;25977;45.462;9.210;2023-07-20T13:20:04;8.02;;;4.53;;
40256;SDS011;25977;45.462;9.210;2023-07-20T13:22:33;6.78;;;3.58;;
40256;SDS011;25977;45.462;9.210;2023-07-20T13:24:59;7.22;;;4.47;;
40256;SDS011;25977;45.462;9.210;2023-07-20T13:27:25;5.88;;;3.47;;
40256;SDS011;25977;45.462;9.210;2023-07-20T13:29:51;5.25;;;3.30;;
40256;SDS011;25977;45.462;9.210;2023-07-20T13:32:17;4.30;;;3.65;;
40256;SDS011;25977;45.462;9.210;2023-07-20T13:34:43;5.57;;;3.10;;
40256;SDS011;25977;45.462;9.210;2023-07-20T13:37:10;8.75;;;3.80;;
40256;SDS011;25977;45.462;9.210;2023-07-20T13:39:36;4.38;;;3.38;;
40256;SDS011;25977;45.462;9.210;2023-07-20T13:42:02;9.95;;;3.25;;
40256;SDS011;25977;45.462;9.210;2023-07-20T13:44:30;7.10;;;4.40;;
40256;SDS011;25977;45.462;9.210;2023-07-20T13:47:00;14.80;;;3.95;;
40256;SDS011;25977;45.462;9.210;2023-07-20T13:49:26;5.03;;;3.40;;
40256;SDS011;25977;45.462;9.210;2023-07-20T13:51:53;8.85;;;3.83;;
40256;SDS011;25977;45.462;9.210;2023-07-20T13:54:19;3.45;;;3.15;;
40256;SDS011;25977;45.462;9.210;2023-07-20T13:56:44;9.55;;;4.22;;
40256;SDS011;25977;45.462;9.210;2023-07-20T13:59:10;7.10;;;3.63;;
40256;SDS011;25977;45.462;9.210;2023-07-20T14:01:36;6.60;;;3.35;;
40256;SDS011;25977;45.462;9.210;2023-07-20T14:04:02;14.38;;;4.45;;
40256;SDS011;25977;45.462;9.210;2023-07-20T14:06:29;6.25;;;3.53;;
40256;SDS011;25977;45.462;9.210;2023-07-20T14:08:56;8.43;;;3.53;;
40256;SDS011;25977;45.462;9.210;2023-07-20T14:11:22;12.25;;;4.15;;
40256;SDS011;25977;45.462;9.210;2023-07-20T14:13:48;5.05;;;3.55;;
40256;SDS011;25977;45.462;9.210;2023-07-20T14:16:20;5.95;;;3.67;;
40256;SDS011;25977;45.462;9.210;2023-07-20T14:18:48;6.60;;;3.53;;
40256;SDS011;25977;45.462;9.210;2023-07-20T14:21:14;7.32;;;3.65;;
40256;SDS011;25977;45.462;9.210;2023-07-20T14:23:41;8.20;;;4.10;;
40256;SDS011;25977;45.462;9.210;2023-07-20T14:26:06;7.57;;;4.40;;
40256;SDS011;25977;45.462;9.210;2023-07-20T14:28:35;7.10;;;3.75;;
40256;SDS011;25977;45.462;9.210;2023-07-20T14:31:01;9.25;;;4.18;;
40256;SDS011;25977;45.462;9.210;2023-07-20T14:33:26;4.47;;;3.50;;
40256;SDS011;25977;45.462;9.210;2023-07-20T14:35:52;6.38;;;3.72;;
40256;SDS011;25977;45.462;9.210;2023-07-20T14:38:18;10.18;;;4.22;;
40256;SDS011;25977;45.462;9.210;2023-07-20T14:40:43;7.13;;;3.78;;
40256;SDS011;25977;45.462;9.210;2023-07-20T14:43:09;6.72;;;4.00;;
40256;SDS011;25977;45.462;9.210;2023-07-20T14:45:35;9.52;;;3.88;;
40256;SDS011;25977;45.462;9.210;2023-07-20T14:48:03;5.82;;;3.35;;
40256;SDS011;25977;45.462;9.210;2023-07-20T14:50:29;5.32;;;3.60;;
40256;SDS011;25977;45.462;9.210;2023-07-20T14:52:54;3.25;;;2.95;;
40256;SDS011;25977;45.462;9.210;2023-07-20T14:55:20;12.18;;;3.55;;
40256;SDS011;25977;45.462;9.210;2023-07-20T14:57:47;10.68;;;4.15;;
40256;SDS011;25977;45.462;9.210;2023-07-20T15:00:13;4.30;;;3.63;;